Time;durP1;ratioP1;P1;durP2;ratioP2;P2;SDS_P1;SDS_P2;PMS_P1;PMS_P2;Temp;Humidity;BMP_temperature;BMP_pressure;BME280_temperature;BME280_humidity;BME280_pressure;Samples;Min_cycle;Max_cycle;Signal;HPM_P1;HPM_P2
2023/12/15 00:00:38;;;;;;;20.17;3.03;;;;;;;7.57;97.27;102134.69;5027098;28;20042;-51
2023/12/15 00:03:05;;;;;;;21.73;5.63;;;;;;;7.57;96.86;102149.25;5010223;28;20049;-54
2023/12/15 00:05:33;;;;;;;7.90;3.17;;;;;;;7.58;97.01;102147.34;5027494;28;20049;-49
2023/12/15 00:08:00;;;;;;;17.52;4.72;;;;;;;7.57;96.80;102152.00;5020474;28;20045;-49
2023/12/15 00:10:28;;;;;;;15.50;3.08;;;;;;;7.59;96.81;102158.09;5033124;28;20049;-54
2023/12/15 00:12:55;;;;;;;9.35;3.00;;;;;;;7.57;96.70;102157.53;5035141;28;20684;-51
2023/12/15 00:15:22;;;;;;;9.70;3.20;;;;;;;7.59;96.64;102163.59;5027469;28;20444;-52
2023/12/15 00:17:50;;;;;;;24.52;4.90;;;;;;;7.58;96.57;102159.19;5038964;28;20056;-51
2023/12/15 00:20:17;;;;;;;12.57;4.75;;;;;;;7.59;96.45;102165.53;5041457;28;20041;-49
2023/12/15 00:22:49;;;;;;;13.32;3.15;;;;;;;7.60;96.58;102161.66;5010672;28;20060;-50
2023/12/15 00:25:16;;;;;;;16.92;5.82;;;;;;;7.61;96.44;102160.53;5021358;28;20037;-48
2023/12/15 00:27:46;;;;;;;15.48;4.45;;;;;;;7.60;96.46;102162.47;5033947;28;20072;-47
2023/12/15 00:30:13;;;;;;;20.02;4.63;;;;;;;7.60;96.38;102170.72;5028053;28;20052;-50
2023/12/15 00:32:41;;;;;;;7.65;2.90;;;;;;;7.61;96.52;102182.59;5022899;28;20052;-50
2023/12/15 00:35:09;;;;;;;15.82;2.90;;;;;;;7.59;96.49;102196.66;5036036;28;20518;-51
2023/12/15 00:37:36;;;;;;;10.55;3.03;;;;;;;7.59;96.13;102204.94;5032992;28;20045;-48
2023/12/15 00:40:04;;;;;;;9.93;2.50;;;;;;;7.61;96.41;102199.94;5038679;28;20057;-53
2023/12/15 00:42:32;;;;;;;10.48;2.53;;;;;;;7.61;96.18;102180.66;5029533;28;20530;-47
2023/12/15 00:44:59;;;;;;;17.40;3.75;;;;;;;7.62;96.07;102175.97;5037794;28;20053;-53
2023/12/15 00:47:27;;;;;;;14.68;3.10;;;;;;;7.62;96.05;102174.03;5026439;28;20772;-52
2023/12/15 00:49:55;;;;;;;10.85;3.10;;;;;;;7.61;96.03;102188.91;5026020;28;20059;-53
2023/12/15 00:52:23;;;;;;;12.02;4.47;;;;;;;7.60;95.77;102178.19;5030216;28;20059;-50
2023/12/15 00:54:50;;;;;;;17.23;3.03;;;;;;;7.61;95.89;102188.09;5035262;28;20387;-51
2023/12/15 00:57:17;;;;;;;10.90;3.42;;;;;;;7.61;95.75;102188.91;5026415;28;20041;-53
2023/12/15 00:59:45;;;;;;;15.25;3.28;;;;;;;7.62;95.90;102192.50;5026573;28;20049;-48
2023/12/15 01:02:12;;;;;;;13.00;3.17;;;;;;;7.62;95.83;102198.84;5037585;28;20045;-53
2023/12/15 01:04:41;;;;;;;15.63;2.75;;;;;;;7.61;95.76;102191.69;5027184;28;20038;-50
2023/12/15 01:07:08;;;;;;;16.13;3.38;;;;;;;7.60;95.76;102201.03;5026233;28;20049;-51
2023/12/15 01:09:37;;;;;;;12.68;4.18;;;;;;;7.58;95.88;102208.78;5025242;28;20080;-52
2023/12/15 01:12:05;;;;;;;14.57;2.97;;;;;;;7.56;95.81;102205.50;5026999;28;20038;-51
2023/12/15 01:14:32;;;;;;;18.70;3.20;;;;;;;7.56;95.98;102219.28;5026636;28;20060;-47
2023/12/15 01:17:00;;;;;;;11.05;3.05;;;;;;;7.56;95.77;102215.72;5026212;28;20073;-49
2023/12/15 01:19:27;;;;;;;12.02;3.10;;;;;;;7.55;96.00;102217.63;5026984;28;20049;-47
2023/12/15 01:21:55;;;;;;;15.93;4.07;;;;;;;7.55;96.09;102236.91;5026881;28;20053;-49
2023/12/15 01:24:22;;;;;;;20.73;3.85;;;;;;;7.55;96.10;102239.69;5026775;28;20053;-48
2023/12/15 01:26:49;;;;;;;17.80;3.15;;;;;;;7.55;96.28;102231.41;5009663;28;20042;-50
2023/12/15 01:29:17;;;;;;;13.63;3.53;;;;;;;7.55;96.11;102242.44;5040715;28;20115;-49
2023/12/15 01:31:44;;;;;;;11.07;2.63;;;;;;;7.55;96.29;102247.94;5044065;28;20049;-47
2023/12/15 01:34:11;;;;;;;11.65;3.00;;;;;;;7.56;96.38;102241.34;5031038;28;20048;-50
2023/12/15 01:36:39;;;;;;;15.63;3.40;;;;;;;7.56;96.41;102246.84;5042485;28;20049;-52
2023/12/15 01:39:06;;;;;;;16.20;3.30;;;;;;;7.55;96.39;102236.91;5030548;28;20056;-53
2023/12/15 01:41:33;;;;;;;11.63;2.70;;;;;;;7.56;96.31;102221.22;5030691;28;20060;-50
2023/12/15 01:44:01;;;;;;;13.32;2.92;;;;;;;7.54;96.44;102218.75;5030597;28;20061;-53
2023/12/15 01:46:30;;;;;;;12.32;3.30;;;;;;;7.52;96.40;102220.97;5030628;28;20054;-49
2023/12/15 01:48:58;;;;;;;17.75;3.80;;;;;;;7.51;96.46;102219.34;5030925;28;20052;-48
2023/12/15 01:51:27;;;;;;;14.25;2.90;;;;;;;7.49;96.60;102205.03;5039083;28;20045;-54
2023/12/15 01:53:54;;;;;;;15.82;2.35;;;;;;;7.49;96.84;102206.97;5016701;28;20050;-47
2023/12/15 01:56:22;;;;;;;12.35;2.70;;;;;;;7.48;96.79;102203.38;5036157;28;20065;-53
2023/12/15 01:58:49;;;;;;;22.75;5.10;;;;;;;7.46;96.78;102213.88;5046317;28;20057;-50
2023/12/15 02:01:17;;;;;;;13.93;4.28;;;;;;;7.46;96.95;102222.13;5040426;28;20068;-48
2023/12/15 02:03:44;;;;;;;15.10;4.80;;;;;;;7.43;96.96;102222.72;5032886;28;20037;-54
2023/12/15 02:06:11;;;;;;;17.48;2.95;;;;;;;7.41;97.09;102230.44;5017733;28;20521;-50
2023/12/15 02:08:43;;;;;;;15.77;3.13;;;;;;;7.42;97.17;102248.59;5031066;28;20064;-49
2023/12/15 02:11:10;;;;;;;14.90;3.10;;;;;;;7.42;97.32;102240.34;5012410;28;20056;-54
2023/12/15 02:13:38;;;;;;;13.90;3.55;;;;;;;7.44;97.30;102242.81;5011504;28;20049;-49
2023/12/15 02:16:05;;;;;;;25.95;3.30;;;;;;;7.44;97.31;102234.56;5030043;28;20053;-49
2023/12/15 02:18:33;;;;;;;11.15;2.97;;;;;;;7.44;97.51;102234.56;5029765;28;20045;-53
2023/12/15 02:21:00;;;;;;;18.38;4.07;;;;;;;7.44;97.78;102229.84;5042338;28;20056;-48
2023/12/15 02:23:27;;;;;;;15.90;4.68;;;;;;;7.41;97.82;102241.47;5036003;28;20053;-53
2023/12/15 02:25:55;;;;;;;16.80;3.35;;;;;;;7.38;98.12;102236.53;5049297;28;20041;-53
2023/12/15 02:28:22;;;;;;;13.40;4.80;;;;;;;7.33;98.45;102240.13;5030112;28;20156;-51
2023/12/15 02:30:50;;;;;;;9.38;2.47;;;;;;;7.31;98.38;102233.25;5012273;28;20060;-49
2023/12/15 02:33:17;;;;;;;9.95;3.28;;;;;;;7.28;98.74;102231.09;5029184;28;20049;-51
2023/12/15 02:35:47;;;;;;;20.48;4.90;;;;;;;7.25;98.82;102221.44;5029754;28;20372;-56
2023/12/15 02:38:18;;;;;;;11.98;3.10;;;;;;;7.22;99.13;102215.72;5028667;28;20045;-52
2023/12/15 02:40:45;;;;;;;20.00;4.55;;;;;;;7.20;99.38;102220.69;5013236;28;20049;-48
2023/12/15 02:43:13;;;;;;;11.43;3.83;;;;;;;7.19;99.48;102210.78;5041460;28;20056;-51
2023/12/15 02:45:40;;;;;;;14.85;3.85;;;;;;;7.17;99.59;102215.75;5042307;28;20515;-53
2023/12/15 02:48:07;;;;;;;15.02;4.43;;;;;;;7.16;99.83;102216.84;5037960;28;20491;-54
2023/12/15 02:50:35;;;;;;;14.35;3.97;;;;;;;7.16;99.75;102230.63;5035987;28;20407;-51
2023/12/15 02:53:02;;;;;;;16.20;4.13;;;;;;;7.16;100.00;102222.38;5039987;28;20053;-49
2023/12/15 02:55:29;;;;;;;26.25;4.95;;;;;;;7.15;100.00;102210.50;5028985;28;20504;-48
2023/12/15 02:57:57;;;;;;;12.95;3.15;;;;;;;7.15;100.00;102204.19;5028703;28;20060;-51
2023/12/15 03:02:55;;;;;;;9.13;2.38;;;;;;;7.14;100.00;102197.03;5048031;22;21662;-53
2023/12/15 03:05:24;;;;;;;12.98;3.72;;;;;;;7.14;100.00;102192.38;5031241;28;20106;-49
2023/12/15 03:07:52;;;;;;;13.32;2.63;;;;;;;7.17;100.00;102190.97;5050342;28;20056;-50
2023/12/15 03:10:19;;;;;;;17.95;3.17;;;;;;;7.18;100.00;102189.84;5044373;28;20061;-48
2023/12/15 03:12:46;;;;;;;11.65;3.58;;;;;;;7.18;100.00;102195.34;5039881;28;20371;-50
2023/12/15 03:15:14;;;;;;;15.95;3.40;;;;;;;7.17;100.00;102196.47;5047973;28;20053;-51
2023/12/15 03:17:41;;;;;;;16.05;4.32;;;;;;;7.19;100.00;102208.03;5048696;28;20060;-49
2023/12/15 03:20:09;;;;;;;15.32;3.40;;;;;;;7.19;100.00;102211.59;5048064;28;20048;-51
2023/12/15 03:22:37;;;;;;;11.30;4.70;;;;;;;7.19;100.00;102206.09;5048594;28;20590;-49
2023/12/15 03:25:05;;;;;;;14.07;3.30;;;;;;;7.19;100.00;102199.75;5047928;28;20037;-53
2023/12/15 03:27:33;;;;;;;13.52;3.38;;;;;;;7.18;100.00;102209.13;5047985;28;20045;-49
2023/12/15 03:30:00;;;;;;;11.27;2.92;;;;;;;7.19;100.00;102203.34;5046380;28;20033;-50
2023/12/15 03:32:28;;;;;;;12.30;4.30;;;;;;;7.20;100.00;102206.94;5029039;28;20529;-50
2023/12/15 03:34:55;;;;;;;14.82;2.15;;;;;;;7.20;100.00;102204.97;5048462;28;20117;-50
2023/12/15 03:37:23;;;;;;;12.10;3.00;;;;;;;7.21;100.00;102203.88;5047399;28;20514;-54
2023/12/15 03:39:50;;;;;;;12.13;2.50;;;;;;;7.23;100.00;102203.56;5047670;28;20529;-49
2023/12/15 03:42:17;;;;;;;13.25;4.22;;;;;;;7.23;100.00;102212.66;5048241;28;20166;-48
2023/12/15 03:44:44;;;;;;;14.77;3.22;;;;;;;7.25;100.00;102215.16;5048032;28;20056;-49
2023/12/15 03:47:12;;;;;;;17.05;3.42;;;;;;;7.27;100.00;102226.69;5048337;28;20060;-50
2023/12/15 03:49:39;;;;;;;24.73;5.10;;;;;;;7.27;100.00;102235.78;5048195;28;20053;-52
2023/12/15 03:52:06;;;;;;;14.63;3.13;;;;;;;7.28;100.00;102229.16;5046508;28;20044;-50
2023/12/15 03:54:34;;;;;;;13.93;2.53;;;;;;;7.29;100.00;102233.56;5047709;28;20048;-49
2023/12/15 03:57:01;;;;;;;11.93;2.83;;;;;;;7.32;100.00;102237.66;5048046;28;20052;-49
2023/12/15 03:59:28;;;;;;;7.35;2.42;;;;;;;7.32;100.00;102240.44;5046979;28;20056;-49
2023/12/15 04:01:56;;;;;;;9.18;2.70;;;;;;;7.34;100.00;102246.47;5047300;28;20049;-50
2023/12/15 04:04:23;;;;;;;13.75;2.60;;;;;;;7.36;100.00;102244.22;5047220;28;20135;-50
2023/12/15 04:06:50;;;;;;;12.45;1.70;;;;;;;7.39;100.00;102240.91;5050019;28;20052;-47
2023/12/15 04:09:18;;;;;;;13.40;2.50;;;;;;;7.38;100.00;102230.19;5046664;28;20033;-49
2023/12/15 04:11:46;;;;;;;10.20;2.60;;;;;;;7.40;100.00;102219.69;5047073;28;20056;-48
2023/12/15 04:14:13;;;;;;;9.48;1.70;;;;;;;7.41;100.00;102208.41;5047538;28;20044;-50
2023/12/15 04:16:41;;;;;;;7.95;2.20;;;;;;;7.41;100.00;102202.91;5046736;28;20545;-48
2023/12/15 04:19:08;;;;;;;12.10;2.08;;;;;;;7.44;100.00;102196.78;5047031;28;20045;-52
2023/12/15 04:21:36;;;;;;;7.70;1.48;;;;;;;7.43;100.00;102192.41;5028591;28;20049;-49
2023/12/15 04:24:04;;;;;;;8.63;1.55;;;;;;;7.45;100.00;102195.69;5047424;28;20053;-53
2023/12/15 04:26:31;;;;;;;15.63;2.17;;;;;;;7.45;100.00;102192.09;5046635;28;20049;-50
2023/12/15 04:28:59;;;;;;;11.60;1.48;;;;;;;7.46;100.00;102188.25;5047455;28;20068;-50
2023/12/15 04:31:26;;;;;;;5.35;1.63;;;;;;;7.45;100.00;102208.63;5046357;28;20399;-54
2023/12/15 04:33:53;;;;;;;9.27;2.33;;;;;;;7.46;100.00;102208.34;5046789;28;20049;-52
2023/12/15 04:36:21;;;;;;;8.50;2.20;;;;;;;7.47;100.00;102229.28;5046279;28;20059;-51
2023/12/15 04:38:48;;;;;;;12.68;3.30;;;;;;;7.47;100.00;102229.28;5047140;28;20033;-49
2023/12/15 04:41:18;;;;;;;10.05;2.10;;;;;;;7.47;100.00;102240.28;5046640;28;20052;-50
2023/12/15 04:43:45;;;;;;;13.07;3.35;;;;;;;7.47;100.00;102265.09;5029170;28;20930;-51
2023/12/15 04:46:22;;;;;;;6.97;1.75;;;;;;;7.50;100.00;102277.47;5046183;28;20052;-49
2023/12/15 04:48:49;;;;;;;11.50;2.20;;;;;;;7.49;100.00;102292.38;5041005;28;20049;-53
2023/12/15 04:51:17;;;;;;;15.32;3.03;;;;;;;7.51;100.00;102287.41;5047125;28;20045;-50
2023/12/15 04:53:45;;;;;;;11.75;2.30;;;;;;;7.51;99.93;102279.97;5041569;28;20061;-51
2023/12/15 04:56:13;;;;;;;8.48;2.17;;;;;;;7.52;99.90;102284.34;5045888;28;20041;-49
2023/12/15 04:58:41;;;;;;;6.20;2.25;;;;;;;7.52;99.82;102292.63;5046922;28;20041;-53
2023/12/15 05:01:10;;;;;;;9.60;2.42;;;;;;;7.54;99.66;102293.16;5046748;28;20053;-48
2023/12/15 05:03:41;;;;;;;4.80;1.92;;;;;;;7.55;99.58;102303.06;5047612;28;20050;-52
2023/12/15 05:06:22;;;;;;;10.98;2.55;;;;;;;7.55;99.43;102316.84;5052676;28;20055;-47
2023/12/15 05:08:51;;;;;;;13.43;5.25;;;;;;;7.57;99.16;102313.81;5049728;28;20041;-51
2023/12/15 05:11:20;;;;;;;11.27;1.98;;;;;;;7.58;99.03;102308.00;5050807;28;20055;-52
2023/12/15 05:13:47;;;;;;;14.32;2.08;;;;;;;7.60;98.86;102313.25;5050786;28;20045;-54
2023/12/15 05:16:14;;;;;;;9.85;1.40;;;;;;;7.61;98.81;102321.22;5050148;28;20402;-48
2023/12/15 05:18:42;;;;;;;5.00;1.40;;;;;;;7.62;98.61;102333.06;5050577;28;20056;-48
2023/12/15 05:21:11;;;;;;;7.25;1.85;;;;;;;7.61;98.42;102323.16;5050318;28;20060;-47
2023/12/15 05:23:39;;;;;;;6.38;2.13;;;;;;;7.61;98.44;102323.97;5050376;28;20055;-53
2023/12/15 05:26:07;;;;;;;11.35;1.70;;;;;;;7.62;98.24;102320.13;5050336;28;20044;-50
2023/12/15 05:28:34;;;;;;;8.50;1.50;;;;;;;7.63;98.09;102321.75;5049846;28;20064;-55
2023/12/15 05:31:02;;;;;;;13.13;2.47;;;;;;;7.64;97.99;102317.91;5050132;28;20037;-50
2023/12/15 05:33:29;;;;;;;6.80;1.20;;;;;;;7.65;97.67;102324.25;5049699;28;20052;-52
2023/12/15 05:35:57;;;;;;;10.75;2.95;;;;;;;7.67;97.67;102346.81;5050001;28;20033;-50
2023/12/15 05:38:25;;;;;;;10.77;3.28;;;;;;;7.66;97.40;102336.88;5049691;28;20053;-50
2023/12/15 05:40:52;;;;;;;10.88;2.35;;;;;;;7.68;97.27;102346.50;5049862;28;20052;-50
2023/12/15 05:43:20;;;;;;;10.07;3.10;;;;;;;7.69;97.40;102353.69;5043457;28;20502;-49
2023/12/15 05:45:47;;;;;;;13.20;2.63;;;;;;;7.69;96.87;102342.66;5048975;28;20067;-54
2023/12/15 05:48:15;;;;;;;10.68;3.35;;;;;;;7.71;96.66;102334.91;5050117;28;20051;-49
2023/12/15 05:50:43;;;;;;;10.38;3.08;;;;;;;7.71;96.78;102339.59;5050620;28;20041;-47
2023/12/15 05:53:11;;;;;;;8.60;2.67;;;;;;;7.70;96.52;102338.81;5050226;28;20049;-49
2023/12/15 05:55:39;;;;;;;12.05;3.78;;;;;;;7.70;96.51;102349.00;5031682;28;20029;-50
2023/12/15 05:58:06;;;;;;;16.15;1.98;;;;;;;7.69;96.47;102359.19;5049571;28;20053;-48
2023/12/15 06:00:33;;;;;;;10.82;1.55;;;;;;;7.70;96.44;102355.34;5049416;28;20052;-51
2023/12/15 06:03:01;;;;;;;13.00;2.70;;;;;;;7.68;96.35;102341.00;5048812;28;20080;-53
2023/12/15 06:05:28;;;;;;;7.97;2.10;;;;;;;7.68;96.34;102352.03;5051087;28;20080;-51
2023/12/15 06:07:56;;;;;;;11.73;1.85;;;;;;;7.67;96.10;102357.84;5050728;28;20053;-48
2023/12/15 06:10:23;;;;;;;12.68;2.53;;;;;;;7.68;96.19;102360.28;5049321;28;20065;-52
2023/12/15 06:12:50;;;;;;;10.88;2.72;;;;;;;7.67;95.89;102369.69;5050028;28;20045;-47
2023/12/15 06:15:18;;;;;;;12.02;3.90;;;;;;;7.66;95.79;102365.28;5049123;28;20067;-48
2023/12/15 06:17:46;;;;;;;17.20;2.53;;;;;;;7.66;95.91;102361.69;5049029;28;20518;-50
2023/12/15 06:20:13;;;;;;;17.13;3.40;;;;;;;7.66;95.83;102359.78;5049396;28;20494;-52
2023/12/15 06:22:41;;;;;;;7.55;2.47;;;;;;;7.67;95.68;102366.94;5049796;28;20399;-50
2023/12/15 06:25:09;;;;;;;16.65;3.63;;;;;;;7.67;95.60;102364.19;5049625;28;20044;-50
2023/12/15 06:27:36;;;;;;;10.35;3.95;;;;;;;7.66;95.43;102368.03;5049463;28;20049;-54
2023/12/15 06:30:05;;;;;;;13.23;2.28;;;;;;;7.66;95.46;102359.78;5049021;28;20061;-51
2023/12/15 06:32:32;;;;;;;6.50;1.70;;;;;;;7.65;95.50;102363.63;5043545;28;20757;-50
2023/12/15 06:35:00;;;;;;;10.43;2.15;;;;;;;7.63;95.27;102360.34;5048960;28;20064;-53
2023/12/15 06:37:27;;;;;;;7.15;1.92;;;;;;;7.62;94.99;102363.41;5048040;28;20049;-52
2023/12/15 06:39:55;;;;;;;14.73;3.05;;;;;;;7.61;95.02;102370.84;5048476;28;20044;-51
2023/12/15 06:42:23;;;;;;;12.93;2.40;;;;;;;7.60;94.96;102374.69;5049016;28;20422;-50
2023/12/15 06:44:50;;;;;;;7.45;1.80;;;;;;;7.60;94.93;102382.16;5049027;28;20041;-48
2023/12/15 06:47:17;;;;;;;19.15;3.08;;;;;;;7.61;94.72;102384.63;5048294;28;20056;-48
2023/12/15 06:49:44;;;;;;;17.67;2.72;;;;;;;7.62;94.75;102380.75;5048505;28;20053;-50
2023/12/15 06:52:12;;;;;;;11.30;2.75;;;;;;;7.61;94.53;102394.81;5048511;28;20064;-50
2023/12/15 06:54:39;;;;;;;12.30;2.50;;;;;;;7.62;94.50;102396.47;5042563;28;20861;-51
2023/12/15 06:57:07;;;;;;;9.13;2.17;;;;;;;7.64;94.41;102400.59;5049116;28;20057;-48
2023/12/15 06:59:34;;;;;;;10.13;2.83;;;;;;;7.64;94.29;102400.59;5048480;28;20044;-51
2023/12/15 07:02:02;;;;;;;14.05;2.78;;;;;;;7.66;94.37;102409.38;5048712;28;20502;-54
2023/12/15 07:04:29;;;;;;;10.77;2.22;;;;;;;7.67;94.20;102411.03;5048191;28;20056;-49
2023/12/15 07:06:57;;;;;;;22.77;4.68;;;;;;;7.68;94.19;102409.91;5049902;28;20037;-49
2023/12/15 07:09:24;;;;;;;9.85;2.20;;;;;;;7.67;94.18;102408.28;5048090;28;20045;-53
2023/12/15 07:11:51;;;;;;;13.15;2.90;;;;;;;7.68;93.90;102404.41;5049307;28;20048;-50
2023/12/15 07:14:19;;;;;;;17.70;1.98;;;;;;;7.69;94.14;102419.00;5047960;28;20717;-53
2023/12/15 07:16:46;;;;;;;17.60;2.88;;;;;;;7.68;93.99;102431.97;5047812;28;20053;-50
2023/12/15 07:19:13;;;;;;;16.75;2.40;;;;;;;7.67;94.10;102435.84;5047822;28;20779;-51
2023/12/15 07:21:41;;;;;;;16.80;2.72;;;;;;;7.69;94.00;102430.03;5048241;28;20053;-49
2023/12/15 07:24:08;;;;;;;17.40;3.03;;;;;;;7.70;93.94;102435.28;5047528;28;20045;-49
2023/12/15 07:26:36;;;;;;;17.77;2.97;;;;;;;7.71;93.92;102438.84;5046813;28;20041;-51
2023/12/15 07:29:03;;;;;;;18.10;3.22;;;;;;;7.72;93.71;102437.75;5046259;28;20569;-54
2023/12/15 07:31:31;;;;;;;13.90;2.95;;;;;;;7.73;93.57;102442.16;5048295;28;20059;-48
2023/12/15 07:33:58;;;;;;;10.15;2.22;;;;;;;7.74;93.64;102444.63;5047188;28;20049;-48
2023/12/15 07:36:26;;;;;;;15.93;2.65;;;;;;;7.74;93.60;102450.13;5048304;28;20037;-52
2023/12/15 07:38:53;;;;;;;16.15;3.35;;;;;;;7.74;93.44;102438.28;5048054;28;20040;-51
2023/12/15 07:41:20;;;;;;;12.27;2.53;;;;;;;7.74;93.41;102452.91;5047961;28;20049;-54
2023/12/15 07:43:48;;;;;;;12.05;2.97;;;;;;;7.74;93.31;102455.66;5047629;28;20499;-49
2023/12/15 07:46:18;;;;;;;9.93;2.10;;;;;;;7.76;93.40;102453.44;5042626;28;20121;-49
2023/12/15 07:48:46;;;;;;;10.63;3.10;;;;;;;7.75;93.20;102456.47;5042040;28;20041;-50
2023/12/15 07:51:20;;;;;;;10.68;2.42;;;;;;;7.76;93.25;102452.59;5047832;28;20044;-48
2023/12/15 07:53:48;;;;;;;10.00;2.50;;;;;;;7.77;93.17;102448.75;5047675;28;20041;-50
2023/12/15 07:56:23;;;;;;;11.50;2.42;;;;;;;7.77;93.10;102441.31;5048377;28;20056;-51
2023/12/15 07:58:51;;;;;;;12.13;2.85;;;;;;;7.76;93.00;102452.59;5048032;28;20033;-52
2023/12/15 08:01:19;;;;;;;16.25;2.97;;;;;;;7.76;92.86;102456.19;5029592;28;20383;-51
2023/12/15 08:03:47;;;;;;;20.65;4.47;;;;;;;7.76;92.87;102453.44;5029579;28;20399;-53
2023/12/15 08:06:16;;;;;;;18.73;4.72;;;;;;;7.77;92.70;102457.00;5032271;28;20049;-51
2023/12/15 08:08:46;;;;;;;10.65;2.42;;;;;;;7.76;92.74;102464.47;5026509;28;20038;-45
2023/12/15 08:11:14;;;;;;;14.60;2.67;;;;;;;7.75;92.79;102460.06;5021918;28;20056;-47
2023/12/15 08:13:42;;;;;;;16.00;4.78;;;;;;;7.75;92.57;102465.59;5030126;28;20061;-45
2023/12/15 08:16:11;;;;;;;12.15;3.28;;;;;;;7.74;92.44;102460.34;5047616;28;20458;-49
2023/12/15 08:18:42;;;;;;;18.83;3.28;;;;;;;7.71;92.39;102467.25;5017144;28;20059;-50
2023/12/15 08:21:10;;;;;;;15.20;4.10;;;;;;;7.69;92.31;102463.97;5046859;28;20057;-46
2023/12/15 08:23:38;;;;;;;11.98;2.70;;;;;;;7.65;92.29;102462.06;5027669;28;20407;-51
2023/12/15 08:26:05;;;;;;;14.13;5.45;;;;;;;7.62;92.11;102452.44;5046570;28;20676;-47
2023/12/15 08:28:33;;;;;;;11.52;2.33;;;;;;;7.60;92.10;102457.38;5042297;28;20056;-47
2023/12/15 08:31:00;;;;;;;13.93;2.53;;;;;;;7.55;92.01;102457.41;5046200;28;20051;-48
2023/12/15 08:33:28;;;;;;;11.52;2.38;;;;;;;7.52;91.87;102452.44;5046866;28;20667;-45
2023/12/15 08:35:55;;;;;;;10.73;2.55;;;;;;;7.49;91.88;102466.81;5046821;28;20044;-47
2023/12/15 08:38:24;;;;;;;12.43;2.90;;;;;;;7.45;91.75;102465.72;5028365;28;20044;-45
2023/12/15 08:40:54;;;;;;;15.10;2.90;;;;;;;7.44;91.80;102469.56;5045783;28;20057;-46
2023/12/15 08:43:21;;;;;;;17.88;2.55;;;;;;;7.41;91.77;102472.91;5046848;28;20048;-46
2023/12/15 08:45:49;;;;;;;14.35;2.60;;;;;;;7.39;91.60;102475.09;5029031;28;20052;-45
2023/12/15 08:48:16;;;;;;;23.38;3.20;;;;;;;7.38;91.67;102470.72;5042079;28;20059;-46
2023/12/15 08:50:43;;;;;;;17.95;3.33;;;;;;;7.36;91.55;102475.66;5038758;28;20046;-46
2023/12/15 08:53:16;;;;;;;9.00;4.80;;;;;;;7.33;91.51;102474.31;5024256;28;20057;-45
2023/12/15 08:55:45;;;;;;;10.20;2.92;;;;;;;7.32;91.64;102485.63;5046325;28;20122;-49
2023/12/15 08:58:12;;;;;;;17.58;3.80;;;;;;;7.31;91.47;102490.28;5045780;28;20044;-47
2023/12/15 09:00:40;;;;;;;21.88;4.38;;;;;;;7.31;91.42;102489.47;5045305;28;20510;-46
2023/12/15 09:03:07;;;;;;;18.67;4.20;;;;;;;7.29;91.37;102492.50;5047096;28;20045;-48
2023/12/15 09:05:36;;;;;;;11.80;3.47;;;;;;;7.27;91.55;102493.91;5026934;28;20045;-46
2023/12/15 09:08:24;;;;;;;12.82;3.10;;;;;;;7.26;91.50;102497.75;5038635;28;20041;-46
2023/12/15 09:10:52;;;;;;;22.70;3.70;;;;;;;7.27;91.67;102499.41;5046344;28;20059;-45
2023/12/15 09:13:20;;;;;;;17.40;3.83;;;;;;;7.27;91.79;102504.91;5045840;28;20059;-54
2023/12/15 09:15:48;;;;;;;16.83;2.75;;;;;;;7.28;91.75;102501.88;5044318;28;20037;-48
2023/12/15 09:18:15;;;;;;;18.15;5.57;;;;;;;7.31;91.83;102506.00;5046279;28;20049;-49
2023/12/15 09:20:43;;;;;;;15.45;2.63;;;;;;;7.33;91.82;102512.06;5040329;28;20504;-48
2023/12/15 09:23:10;;;;;;;15.88;3.55;;;;;;;7.35;91.85;102512.63;5046095;28;20517;-46
2023/12/15 09:25:38;;;;;;;17.85;4.22;;;;;;;7.40;92.02;102528.28;5045132;28;20541;-49
2023/12/15 09:28:05;;;;;;;19.42;3.30;;;;;;;7.43;92.15;102525.81;5027911;28;20597;-52
2023/12/15 09:30:33;;;;;;;33.50;5.30;;;;;;;7.45;91.96;102540.13;5045964;28;20068;-48
2023/12/15 09:33:01;;;;;;;15.82;3.63;;;;;;;7.47;91.96;102532.41;5045702;28;20595;-47
2023/12/15 09:35:28;;;;;;;21.55;4.18;;;;;;;7.49;92.08;102535.72;5041801;28;20391;-46
2023/12/15 09:37:56;;;;;;;14.35;2.92;;;;;;;7.53;92.11;102536.78;5046552;28;20044;-48
2023/12/15 09:40:23;;;;;;;20.42;3.00;;;;;;;7.55;92.09;102542.00;5045874;28;20754;-46
2023/12/15 09:42:51;;;;;;;13.70;2.88;;;;;;;7.59;92.14;102534.84;5046657;28;20117;-47
2023/12/15 09:45:19;;;;;;;16.00;4.85;;;;;;;7.62;92.23;102551.66;5045484;28;20049;-49
2023/12/15 09:47:47;;;;;;;15.23;4.20;;;;;;;7.65;92.12;102551.06;5045513;28;20049;-48
2023/12/15 09:50:17;;;;;;;17.23;3.67;;;;;;;7.68;91.93;102547.75;5045640;28;20048;-53
2023/12/15 09:52:47;;;;;;;50.97;7.30;;;;;;;7.73;92.17;102558.75;5039940;28;20041;-49
2023/12/15 09:55:15;;;;;;;22.58;6.15;;;;;;;7.76;92.11;102558.19;5049307;28;20045;-47
2023/12/15 09:57:43;;;;;;;20.77;3.90;;;;;;;7.80;92.29;102559.28;5050119;28;20344;-48
2023/12/15 10:00:12;;;;;;;20.95;5.55;;;;;;;7.84;92.18;102565.88;5049055;28;20052;-49
2023/12/15 10:02:40;;;;;;;20.67;3.40;;;;;;;7.89;92.21;102568.63;5047752;28;20053;-46
2023/12/15 10:05:08;;;;;;;19.20;3.70;;;;;;;7.94;92.17;102562.28;5044554;28;20561;-52
2023/12/15 10:07:36;;;;;;;24.42;5.38;;;;;;;7.96;92.24;102560.88;5057491;28;20392;-50
2023/12/15 10:10:03;;;;;;;15.50;2.90;;;;;;;7.98;92.17;102566.94;5036153;28;20056;-46
2023/12/15 10:12:30;;;;;;;11.55;2.40;;;;;;;8.03;92.26;102574.34;5031464;28;20064;-51
2023/12/15 10:14:58;;;;;;;20.63;3.90;;;;;;;8.08;92.09;102577.06;5049637;28;20049;-50
2023/12/15 10:17:26;;;;;;;14.85;2.40;;;;;;;8.12;92.12;102583.69;5049075;28;20052;-49
2023/12/15 10:20:12;;;;;;;18.05;4.07;;;;;;;8.18;92.09;102582.53;5031085;28;20037;-51
2023/12/15 10:22:40;;;;;;;14.77;2.92;;;;;;;8.20;91.98;102582.25;5048710;28;20053;-48
2023/12/15 10:25:19;;;;;;;17.52;3.55;;;;;;;8.23;92.06;102584.47;5048813;28;20056;-45
2023/12/15 10:27:48;;;;;;;24.70;5.30;;;;;;;8.26;91.90;102595.72;5044141;28;20052;-47
2023/12/15 10:30:19;;;;;;;14.07;3.38;;;;;;;8.28;91.94;102585.28;5049186;28;20076;-48
2023/12/15 10:32:48;;;;;;;9.27;2.78;;;;;;;8.31;91.89;102594.94;5048982;28;20048;-46
2023/12/15 10:35:17;;;;;;;21.88;3.95;;;;;;;8.33;91.92;102584.41;5042751;28;20041;-46
2023/12/15 10:37:45;;;;;;;15.18;2.90;;;;;;;8.33;91.86;102578.91;5027492;28;20075;-44
2023/12/15 10:40:13;;;;;;;13.88;3.10;;;;;;;8.34;92.04;102581.38;5048811;28;20059;-47
2023/12/15 10:42:42;;;;;;;17.95;4.15;;;;;;;8.37;92.10;102585.47;5048570;28;20045;-44
2023/12/15 10:45:10;;;;;;;6.30;2.47;;;;;;;8.42;92.07;102590.97;5048701;28;20682;-47
2023/12/15 10:47:39;;;;;;;15.73;3.38;;;;;;;8.47;91.79;102604.75;5048603;28;20052;-47
2023/12/15 10:50:09;;;;;;;9.07;2.33;;;;;;;8.51;92.19;102597.53;5045349;28;20049;-45
2023/12/15 10:52:39;;;;;;;10.73;3.05;;;;;;;8.54;92.19;102596.97;5047539;28;20103;-48
2023/12/15 10:55:07;;;;;;;17.23;3.30;;;;;;;8.58;92.32;102598.03;5048414;28;20037;-45
2023/12/15 10:57:34;;;;;;;10.40;1.85;;;;;;;8.63;92.49;102603.53;5043831;28;20045;-48
2023/12/15 11:00:04;;;;;;;5.28;1.30;;;;;;;8.69;92.70;102594.09;5046168;28;20760;-50
2023/12/15 11:02:34;;;;;;;13.25;2.13;;;;;;;8.72;92.99;102596.28;5030325;28;20061;-49
2023/12/15 11:05:03;;;;;;;9.98;3.13;;;;;;;8.77;92.78;102584.38;5047604;28;20048;-48
2023/12/15 11:07:30;;;;;;;10.25;1.80;;;;;;;8.81;93.17;102586.28;5048711;28;20045;-46
2023/12/15 11:09:59;;;;;;;12.05;2.42;;;;;;;8.85;93.17;102579.06;5047924;28;20045;-48
2023/12/15 11:12:33;;;;;;;7.30;1.33;;;;;;;8.90;93.45;102584.53;5048323;28;20049;-48
2023/12/15 11:15:02;;;;;;;3.53;1.58;;;;;;;8.97;93.54;102584.22;5048233;28;20391;-45
2023/12/15 11:17:31;;;;;;;5.72;1.55;;;;;;;9.03;93.79;102583.88;5047747;28;20060;-46
2023/12/15 11:20:06;;;;;;;8.65;1.50;;;;;;;9.08;93.80;102583.03;5046994;28;20044;-47
2023/12/15 11:22:48;;;;;;;5.82;1.50;;;;;;;9.13;93.84;102582.97;5030069;28;20037;-49
2023/12/15 11:25:21;;;;;;;11.00;1.25;;;;;;;9.18;94.19;102580.97;5047528;28;20041;-44
2023/12/15 11:28:08;;;;;;;5.40;1.73;;;;;;;9.25;94.22;102572.34;5045171;28;20057;-49
2023/12/15 11:30:40;;;;;;;4.25;1.40;;;;;;;9.28;94.61;102569.00;5040378;28;20037;-47